Time;durP1;ratioP1;P1;durP2;ratioP2;P2;SDS_P1;SDS_P2;PMS_P1;PMS_P2;Temp;Humidity;BMP_temperature;BMP_pressure;BME280_temperature;BME280_humidity;BME280_pressure;Samples;Min_cycle;Max_cycle;Signal;HPM_P1;HPM_P2
2022/03/31 00:00:44;;;;;;;15.00;8.40;;;1.10;99.90;;;;;;4438158;32;20230;-66
2022/03/31 00:03:14;;;;;;;16.20;8.80;;;1.00;99.90;;;;;;4439573;32;20146;-67
2022/03/31 00:05:42;;;;;;;14.53;8.07;;;1.10;99.90;;;;;;4439706;32;20253;-66
2022/03/31 00:08:14;;;;;;;14.43;8.50;;;1.10;99.90;;;;;;4437727;32;20174;-66
2022/03/31 00:10:47;;;;;;;14.17;8.43;;;1.10;99.90;;;;;;4438169;32;20182;-66
2022/03/31 00:13:21;;;;;;;15.00;8.27;;;1.10;99.90;;;;;;4437757;32;20210;-66
2022/03/31 00:15:48;;;;;;;13.07;8.17;;;1.10;99.90;;;;;;4438123;32;20212;-66
2022/03/31 00:18:17;;;;;;;16.50;8.70;;;1.10;99.90;;;;;;4437527;32;20186;-67
2022/03/31 00:20:44;;;;;;;14.73;8.03;;;1.10;99.90;;;;;;4437365;32;20209;-66
2022/03/31 00:23:11;;;;;;;13.27;8.17;;;1.10;99.90;;;;;;4438257;32;20508;-66
2022/03/31 00:25:39;;;;;;;11.77;7.37;;;1.00;99.90;;;;;;4437987;32;20193;-67
2022/03/31 00:28:06;;;;;;;15.43;7.60;;;1.00;99.90;;;;;;4437334;32;20503;-67
2022/03/31 00:30:35;;;;;;;14.83;8.40;;;1.00;99.90;;;;;;4438453;32;20218;-67
2022/03/31 00:33:02;;;;;;;13.80;8.33;;;1.10;99.90;;;;;;4439028;32;20142;-66
2022/03/31 00:35:33;;;;;;;13.20;8.30;;;1.10;99.90;;;;;;4437865;32;20174;-66
2022/03/31 00:38:00;;;;;;;14.00;8.53;;;1.10;99.90;;;;;;4439139;32;20151;-66
2022/03/31 00:40:27;;;;;;;14.23;8.30;;;1.10;99.90;;;;;;4438841;32;20161;-67
2022/03/31 00:42:57;;;;;;;15.70;8.57;;;1.10;99.90;;;;;;4437567;32;20236;-67
2022/03/31 00:45:34;;;;;;;13.70;8.03;;;1.10;99.90;;;;;;4438959;32;20209;-67
2022/03/31 00:48:02;;;;;;;13.27;7.63;;;1.10;99.90;;;;;;4441676;32;20388;-67
2022/03/31 00:50:31;;;;;;;12.00;7.10;;;1.00;99.90;;;;;;4440503;32;20173;-67
2022/03/31 00:52:58;;;;;;;14.20;7.20;;;0.90;99.90;;;;;;4442166;32;20205;-67
2022/03/31 00:55:45;;;;;;;14.40;7.57;;;0.80;99.90;;;;;;4442090;32;20157;-66
2022/03/31 00:58:13;;;;;;;15.47;7.57;;;0.80;99.90;;;;;;4440826;32;20456;-67
2022/03/31 01:00:41;;;;;;;11.50;6.80;;;0.80;99.90;;;;;;4440979;32;20194;-67
2022/03/31 01:03:08;;;;;;;13.43;7.80;;;0.80;99.90;;;;;;4443540;32;20188;-67
2022/03/31 01:05:38;;;;;;;11.83;7.17;;;0.80;99.90;;;;;;4448533;32;20181;-68
2022/03/31 01:08:05;;;;;;;13.37;7.87;;;0.80;99.90;;;;;;4446974;32;20186;-67
2022/03/31 01:10:33;;;;;;;14.50;7.63;;;0.80;99.90;;;;;;4456367;32;20242;-67
2022/03/31 01:13:05;;;;;;;13.07;7.70;;;0.80;99.90;;;;;;4456678;32;20173;-67
2022/03/31 01:15:32;;;;;;;13.67;8.23;;;0.80;99.90;;;;;;4456919;32;20177;-66
2022/03/31 01:17:59;;;;;;;10.47;7.03;;;0.70;99.90;;;;;;4456084;32;20194;-67
2022/03/31 01:20:26;;;;;;;13.87;7.50;;;0.80;99.90;;;;;;4456211;32;20170;-67
2022/03/31 01:22:53;;;;;;;15.13;7.90;;;0.80;99.90;;;;;;4454867;32;20178;-67
2022/03/31 01:25:20;;;;;;;13.40;7.67;;;0.70;99.90;;;;;;4457273;32;20173;-67
2022/03/31 01:27:48;;;;;;;13.30;7.20;;;0.70;99.90;;;;;;4455087;32;20170;-67
2022/03/31 01:30:19;;;;;;;12.47;7.30;;;0.70;99.90;;;;;;4455993;32;20281;-67
2022/03/31 01:32:46;;;;;;;13.03;6.90;;;0.70;99.90;;;;;;4456897;32;20142;-67
2022/03/31 01:35:15;;;;;;;12.37;7.60;;;0.70;99.90;;;;;;4455971;32;20174;-67
2022/03/31 01:37:43;;;;;;;11.27;7.10;;;0.60;99.90;;;;;;4456339;32;20238;-67
2022/03/31 01:40:11;;;;;;;13.13;6.93;;;0.70;99.90;;;;;;4449106;32;20253;-67
2022/03/31 01:42:38;;;;;;;11.60;7.13;;;0.70;99.90;;;;;;4448964;32;20194;-67
2022/03/31 01:45:08;;;;;;;11.87;6.93;;;0.70;99.90;;;;;;4441452;32;20460;-67
2022/03/31 01:47:35;;;;;;;11.40;7.03;;;0.70;99.90;;;;;;4439777;32;20261;-67
2022/03/31 01:50:03;;;;;;;10.33;6.90;;;0.70;99.90;;;;;;4439912;32;20197;-67
2022/03/31 01:52:31;;;;;;;12.93;6.67;;;0.70;99.90;;;;;;4440083;32;20147;-67
2022/03/31 01:54:58;;;;;;;11.33;7.03;;;0.60;99.90;;;;;;4440194;32;20182;-67
2022/03/31 01:57:25;;;;;;;12.27;6.77;;;0.70;99.90;;;;;;4440616;32;20213;-67
2022/03/31 01:59:52;;;;;;;9.97;6.47;;;0.60;99.90;;;;;;4440809;32;20200;-67
2022/03/31 02:02:19;;;;;;;10.50;6.30;;;0.60;99.90;;;;;;4439444;32;20512;-67
2022/03/31 02:04:47;;;;;;;12.30;6.20;;;0.50;99.90;;;;;;4440556;32;20170;-67
2022/03/31 02:07:14;;;;;;;11.17;6.60;;;0.50;99.90;;;;;;4439556;32;20231;-67
2022/03/31 02:09:41;;;;;;;9.03;6.03;;;0.50;99.90;;;;;;4439752;32;20200;-67
2022/03/31 02:12:09;;;;;;;11.10;6.30;;;0.50;99.90;;;;;;4438968;32;20186;-67
2022/03/31 02:14:37;;;;;;;10.37;6.30;;;0.50;99.90;;;;;;4442178;32;20208;-68
2022/03/31 02:17:09;;;;;;;9.80;6.13;;;0.50;99.90;;;;;;4441261;32;20147;-67
2022/03/31 02:19:37;;;;;;;10.63;5.73;;;0.50;99.90;;;;;;4441771;32;20178;-67
2022/03/31 02:22:05;;;;;;;9.57;5.70;;;0.50;99.90;;;;;;4446049;32;20186;-68
2022/03/31 02:24:34;;;;;;;8.53;5.70;;;0.50;99.90;;;;;;4445721;32;20215;-68
2022/03/31 02:27:03;;;;;;;10.70;5.90;;;0.50;99.90;;;;;;4439293;32;20186;-68
2022/03/31 02:29:30;;;;;;;10.40;5.90;;;0.50;99.90;;;;;;4439901;32;20189;-68
2022/03/31 02:31:57;;;;;;;10.57;5.33;;;0.50;99.90;;;;;;4440518;32;20154;-67
2022/03/31 02:34:24;;;;;;;8.63;5.40;;;0.40;99.90;;;;;;4438811;32;20175;-68
2022/03/31 02:36:52;;;;;;;10.07;5.87;;;0.40;99.90;;;;;;4439920;32;20166;-68
2022/03/31 02:39:19;;;;;;;9.43;5.60;;;0.40;99.90;;;;;;4438774;32;20186;-68
2022/03/31 02:41:46;;;;;;;9.20;5.77;;;0.40;99.90;;;;;;4439834;32;20182;-68
2022/03/31 02:44:14;;;;;;;11.30;5.73;;;0.40;99.90;;;;;;4440041;32;20178;-67
2022/03/31 02:46:41;;;;;;;13.13;5.43;;;0.40;99.90;;;;;;4439843;32;20182;-67
2022/03/31 02:49:09;;;;;;;9.13;5.67;;;0.40;99.90;;;;;;4440478;32;20177;-68
2022/03/31 02:51:36;;;;;;;11.53;5.90;;;0.40;99.90;;;;;;4438465;32;20182;-68
2022/03/31 02:56:48;;;;;;;9.27;5.67;;;0.30;99.90;;;;;;4439861;32;20162;-68
2022/03/31 02:59:16;;;;;;;9.10;5.93;;;0.30;99.90;;;;;;4440319;32;20228;-67
2022/03/31 03:01:43;;;;;;;7.73;5.60;;;0.30;99.90;;;;;;4440071;32;20146;-68
2022/03/31 03:04:11;;;;;;;10.77;5.80;;;0.30;99.90;;;;;;4438489;32;20166;-67
2022/03/31 03:06:39;;;;;;;11.73;5.53;;;0.30;99.90;;;;;;4438816;32;20237;-68
2022/03/31 03:09:07;;;;;;;11.63;5.80;;;0.30;99.90;;;;;;4438035;32;20209;-67
2022/03/31 03:11:35;;;;;;;9.10;5.13;;;0.20;99.90;;;;;;4438500;32;20234;-68
2022/03/31 03:14:03;;;;;;;11.17;5.77;;;0.20;99.90;;;;;;4438187;32;20233;-68
2022/03/31 03:16:30;;;;;;;9.50;5.60;;;0.20;99.90;;;;;;4439887;32;20201;-67
2022/03/31 03:18:58;;;;;;;8.60;5.33;;;0.30;99.90;;;;;;4437898;32;20182;-67
2022/03/31 03:21:26;;;;;;;8.20;5.30;;;0.30;99.90;;;;;;4439352;32;20205;-67
2022/03/31 03:23:53;;;;;;;11.30;5.60;;;0.30;99.90;;;;;;4438809;32;20570;-67
2022/03/31 03:26:21;;;;;;;9.17;5.47;;;0.30;99.90;;;;;;4439734;32;20318;-67
2022/03/31 03:28:48;;;;;;;10.67;5.37;;;0.30;99.90;;;;;;4439614;32;20165;-67
2022/03/31 03:31:16;;;;;;;8.93;5.33;;;0.30;99.90;;;;;;4426401;32;20205;-67
2022/03/31 03:33:43;;;;;;;8.73;5.50;;;0.30;99.90;;;;;;4439199;32;20418;-68
2022/03/31 03:36:12;;;;;;;8.60;5.27;;;0.40;99.90;;;;;;4437838;32;20520;-67
2022/03/31 03:38:40;;;;;;;10.00;5.67;;;0.30;99.90;;;;;;4437725;32;20235;-68
2022/03/31 03:41:10;;;;;;;9.80;5.17;;;0.30;99.90;;;;;;4438026;32;20225;-67
2022/03/31 03:43:38;;;;;;;9.43;5.80;;;0.30;99.90;;;;;;4439453;32;20147;-68
2022/03/31 03:46:05;;;;;;;9.83;5.70;;;0.30;99.90;;;;;;4440662;32;20190;-68
2022/03/31 03:48:33;;;;;;;9.47;5.80;;;0.20;99.90;;;;;;4438900;32;20178;-68
2022/03/31 03:51:00;;;;;;;9.20;5.30;;;0.20;99.90;;;;;;4439853;32;20217;-68
2022/03/31 03:53:28;;;;;;;12.07;5.77;;;0.20;99.90;;;;;;4438481;32;20196;-67
2022/03/31 03:55:55;;;;;;;9.57;5.50;;;0.20;99.90;;;;;;4437658;32;20190;-67
2022/03/31 03:58:22;;;;;;;12.77;5.80;;;0.10;99.90;;;;;;4439594;32;20174;-67
2022/03/31 04:00:49;;;;;;;9.67;5.63;;;0.10;99.90;;;;;;4439166;32;20447;-68
2022/03/31 04:03:17;;;;;;;11.30;6.10;;;0.10;99.90;;;;;;4437837;32;20182;-67
2022/03/31 04:05:45;;;;;;;10.77;6.20;;;0.10;99.90;;;;;;4439327;32;20219;-67
2022/03/31 04:08:14;;;;;;;9.60;5.87;;;0.10;99.90;;;;;;4437657;32;20182;-67
2022/03/31 04:10:41;;;;;;;10.43;6.27;;;0.10;99.90;;;;;;4440873;32;20262;-68
2022/03/31 04:13:09;;;;;;;12.33;6.50;;;0.10;99.90;;;;;;4445652;32;20174;-67
2022/03/31 04:15:36;;;;;;;9.70;6.03;;;0.10;99.90;;;;;;4437408;32;20248;-68
2022/03/31 04:18:05;;;;;;;11.67;6.00;;;0.10;99.90;;;;;;4439349;32;20178;-67
2022/03/31 04:20:33;;;;;;;9.67;5.77;;;0.10;99.90;;;;;;4438786;32;20201;-67
2022/03/31 04:23:01;;;;;;;10.40;6.10;;;0.10;99.90;;;;;;4440961;32;20178;-67
2022/03/31 04:25:28;;;;;;;9.60;5.83;;;0.10;99.90;;;;;;4441212;32;20171;-67
2022/03/31 04:27:55;;;;;;;11.43;6.03;;;0.10;99.90;;;;;;4442035;32;20308;-67
2022/03/31 04:30:23;;;;;;;10.87;5.73;;;0.10;99.90;;;;;;4440789;32;20179;-68
2022/03/31 04:32:51;;;;;;;14.00;6.73;;;0.10;99.90;;;;;;4440568;32;20189;-68
2022/03/31 04:35:18;;;;;;;11.97;6.73;;;0.10;99.90;;;;;;4440544;32;20193;-67
2022/03/31 04:37:47;;;;;;;10.43;6.33;;;0.10;99.90;;;;;;4440372;32;20261;-67
2022/03/31 04:40:14;;;;;;;12.37;6.40;;;0.10;99.90;;;;;;4441643;32;20216;-68
2022/03/31 04:42:41;;;;;;;13.10;6.40;;;0.10;99.90;;;;;;4441560;32;20197;-68
2022/03/31 04:45:09;;;;;;;10.70;6.17;;;0.10;99.90;;;;;;4440571;32;20174;-68
2022/03/31 04:47:36;;;;;;;13.80;6.30;;;0.10;99.90;;;;;;4440949;32;20192;-68
2022/03/31 04:50:09;;;;;;;11.07;6.20;;;0.10;99.90;;;;;;4440468;32;20174;-67
2022/03/31 04:52:37;;;;;;;11.80;6.10;;;0.10;99.90;;;;;;4442126;32;20209;-67
2022/03/31 04:55:04;;;;;;;11.40;6.83;;;0.20;99.90;;;;;;4441763;32;20376;-67
2022/03/31 04:57:31;;;;;;;10.77;6.47;;;0.10;99.90;;;;;;4440079;32;20183;-68
2022/03/31 04:59:59;;;;;;;11.67;6.50;;;0.20;99.90;;;;;;4440570;32;20223;-67
2022/03/31 05:02:26;;;;;;;12.07;6.50;;;0.20;99.90;;;;;;4441288;32;20251;-67
2022/03/31 05:04:53;;;;;;;11.10;6.23;;;0.30;99.90;;;;;;4440526;32;20243;-68
2022/03/31 05:07:20;;;;;;;12.90;6.47;;;0.20;99.90;;;;;;4440076;32;20535;-67
2022/03/31 05:09:48;;;;;;;12.37;6.40;;;0.20;99.90;;;;;;4440071;32;20174;-68
2022/03/31 05:12:15;;;;;;;10.87;5.77;;;0.20;99.90;;;;;;4440874;32;20185;-68
2022/03/31 05:14:42;;;;;;;13.03;6.27;;;0.20;99.90;;;;;;4440300;32;20187;-68
2022/03/31 05:17:10;;;;;;;10.20;6.43;;;0.20;99.90;;;;;;4448182;32;20198;-68
2022/03/31 05:19:38;;;;;;;11.40;6.30;;;0.30;99.90;;;;;;4440909;32;20189;-67
2022/03/31 05:22:05;;;;;;;11.80;6.13;;;0.30;99.90;;;;;;4439841;32;20173;-68
2022/03/31 05:24:32;;;;;;;10.03;6.00;;;0.40;99.90;;;;;;4440047;32;20194;-67
2022/03/31 05:26:59;;;;;;;14.17;5.70;;;0.40;99.90;;;;;;4439580;32;20190;-68
2022/03/31 05:29:26;;;;;;;11.83;5.50;;;0.50;99.90;;;;;;4439604;32;20204;-68
2022/03/31 05:31:53;;;;;;;11.90;6.23;;;0.40;99.90;;;;;;4439491;32;20185;-68
2022/03/31 05:34:21;;;;;;;11.40;6.07;;;0.40;99.90;;;;;;4440309;32;20174;-68
2022/03/31 05:36:49;;;;;;;9.90;6.00;;;0.50;99.90;;;;;;4442479;32;20560;-68
2022/03/31 05:39:16;;;;;;;12.00;6.37;;;0.50;99.90;;;;;;4441513;32;20316;-68
2022/03/31 05:41:42;;;;;;;12.27;5.33;;;0.50;99.90;;;;;;4440068;32;20193;-68
2022/03/31 05:44:10;;;;;;;13.40;5.43;;;0.50;99.90;;;;;;4439876;32;20170;-68
2022/03/31 05:46:37;;;;;;;10.60;6.00;;;0.60;99.90;;;;;;4441425;32;20138;-68
2022/03/31 05:49:04;;;;;;;11.20;5.97;;;0.70;99.90;;;;;;4441008;32;20183;-67
2022/03/31 05:51:31;;;;;;;9.20;5.53;;;0.70;99.90;;;;;;4442430;32;20412;-67
2022/03/31 05:53:59;;;;;;;9.60;5.40;;;0.70;99.90;;;;;;4440095;32;20229;-68
2022/03/31 05:56:26;;;;;;;10.80;5.70;;;0.70;99.90;;;;;;4440409;32;20248;-68
2022/03/31 05:58:53;;;;;;;9.73;5.87;;;0.70;99.90;;;;;;4440003;32;20179;-68
2022/03/31 06:01:20;;;;;;;12.27;5.47;;;0.70;99.90;;;;;;4439424;32;20174;-68
2022/03/31 06:03:47;;;;;;;9.73;5.83;;;0.70;99.90;;;;;;4439179;32;20227;-68
2022/03/31 06:06:15;;;;;;;9.67;5.97;;;0.70;99.90;;;;;;4439708;32;20212;-68
2022/03/31 06:08:42;;;;;;;10.03;5.70;;;0.70;99.90;;;;;;4426927;32;20194;-68
2022/03/31 06:11:09;;;;;;;11.97;5.90;;;0.80;99.90;;;;;;4439588;32;20231;-68
2022/03/31 06:13:36;;;;;;;12.27;5.90;;;0.80;99.90;;;;;;4440941;32;20142;-69
2022/03/31 06:16:03;;;;;;;10.77;5.93;;;0.90;99.90;;;;;;4440778;32;20174;-68
2022/03/31 06:18:31;;;;;;;9.90;5.83;;;0.80;99.90;;;;;;4439819;32;20182;-68
2022/03/31 06:20:58;;;;;;;12.33;5.87;;;0.90;99.90;;;;;;4440644;32;20201;-67
2022/03/31 06:23:26;;;;;;;10.80;5.47;;;0.90;99.90;;;;;;4440702;32;20222;-68
2022/03/31 06:25:53;;;;;;;9.37;5.40;;;0.90;99.90;;;;;;4449379;32;20167;-68
2022/03/31 06:28:20;;;;;;;9.67;5.53;;;1.00;99.90;;;;;;4440022;32;20190;-68
2022/03/31 06:30:50;;;;;;;9.20;5.57;;;1.10;99.90;;;;;;4440144;32;20257;-68
2022/03/31 06:33:17;;;;;;;8.33;5.73;;;1.10;99.90;;;;;;4441828;32;20181;-68
2022/03/31 06:35:45;;;;;;;10.47;5.73;;;1.20;99.90;;;;;;4439176;32;20407;-68
2022/03/31 06:38:12;;;;;;;10.20;5.77;;;1.20;99.90;;;;;;4439059;32;20209;-68
2022/03/31 06:40:41;;;;;;;9.53;5.27;;;1.20;99.90;;;;;;4440083;32;20170;-68
2022/03/31 06:43:08;;;;;;;10.57;5.37;;;1.20;99.90;;;;;;4438346;32;20179;-68
2022/03/31 06:45:36;;;;;;;9.50;5.77;;;1.30;99.90;;;;;;4439453;32;20182;-68
2022/03/31 06:48:04;;;;;;;7.73;5.07;;;1.30;99.90;;;;;;4440037;32;20189;-68
2022/03/31 06:50:33;;;;;;;10.03;5.77;;;1.30;99.90;;;;;;4438058;32;20584;-68
2022/03/31 06:53:01;;;;;;;11.33;5.40;;;1.40;99.90;;;;;;4438630;32;20182;-68
2022/03/31 06:55:29;;;;;;;9.00;5.40;;;1.40;99.90;;;;;;4440047;32;20240;-68
2022/03/31 06:57:56;;;;;;;10.43;5.70;;;1.40;99.90;;;;;;4440649;32;20246;-68
2022/03/31 07:00:24;;;;;;;10.20;5.73;;;1.50;99.90;;;;;;4440664;32;20200;-68
2022/03/31 07:02:51;;;;;;;10.43;5.60;;;1.60;99.90;;;;;;4438320;32;20190;-68
2022/03/31 07:05:19;;;;;;;10.27;5.60;;;1.60;99.90;;;;;;4439847;32;20182;-68
2022/03/31 07:07:46;;;;;;;12.30;5.70;;;1.70;99.90;;;;;;4439499;32;20198;-69
2022/03/31 07:10:13;;;;;;;9.93;5.73;;;1.90;99.90;;;;;;4441105;32;20192;-68
2022/03/31 07:12:40;;;;;;;11.50;5.03;;;2.00;99.90;;;;;;4439901;32;20198;-68
2022/03/31 07:15:09;;;;;;;8.10;5.13;;;2.10;99.90;;;;;;4439114;32;20174;-68
2022/03/31 07:17:38;;;;;;;10.03;5.73;;;2.10;99.90;;;;;;4439924;32;20178;-68
2022/03/31 07:20:06;;;;;;;10.17;5.20;;;2.10;99.90;;;;;;4439568;32;20210;-68
2022/03/31 07:22:34;;;;;;;10.83;5.50;;;2.20;99.90;;;;;;4439939;32;20192;-68
2022/03/31 07:25:01;;;;;;;7.90;4.87;;;2.20;99.90;;;;;;4438490;32;20487;-69
2022/03/31 07:27:28;;;;;;;8.20;5.03;;;2.20;99.90;;;;;;4437336;32;20196;-68
2022/03/31 07:29:55;;;;;;;8.43;4.50;;;2.30;99.90;;;;;;4440059;32;20186;-69
2022/03/31 07:32:22;;;;;;;9.40;5.10;;;2.40;99.90;;;;;;4440661;32;20151;-71
2022/03/31 07:34:49;;;;;;;9.80;5.27;;;2.50;99.90;;;;;;4437340;32;20548;-69
2022/03/31 07:37:16;;;;;;;10.30;4.77;;;2.60;99.90;;;;;;4439208;32;20425;-71
2022/03/31 07:39:45;;;;;;;9.77;5.00;;;2.70;99.90;;;;;;4437877;32;20174;-69
2022/03/31 07:42:16;;;;;;;9.93;4.93;;;2.70;99.90;;;;;;4438380;32;20182;-71
2022/03/31 07:44:43;;;;;;;8.37;4.70;;;2.80;99.90;;;;;;4438562;32;20201;-70
2022/03/31 07:47:10;;;;;;;7.33;4.50;;;2.70;99.90;;;;;;4439726;32;20257;-70
2022/03/31 07:49:37;;;;;;;8.17;4.73;;;2.70;99.90;;;;;;4439685;32;20506;-70
2022/03/31 07:52:05;;;;;;;7.93;5.03;;;2.70;99.90;;;;;;4437128;32;20186;-69
2022/03/31 07:54:52;;;;;;;9.00;5.43;;;2.80;99.90;;;;;;4437363;32;20194;-70
2022/03/31 07:57:19;;;;;;;8.20;4.50;;;3.00;99.90;;;;;;4442918;32;20183;-70
2022/03/31 07:59:46;;;;;;;7.57;4.53;;;3.10;99.90;;;;;;4441924;32;20232;-70
2022/03/31 08:02:13;;;;;;;7.80;4.33;;;3.20;99.90;;;;;;4442890;32;20148;-70
2022/03/31 08:04:40;;;;;;;7.43;4.23;;;3.20;99.90;;;;;;4440539;32;20187;-72
2022/03/31 08:07:07;;;;;;;8.63;5.33;;;3.30;99.90;;;;;;4441491;32;20448;-71
2022/03/31 08:09:34;;;;;;;6.47;4.47;;;3.50;99.90;;;;;;4441588;32;20443;-72
2022/03/31 08:12:01;;;;;;;7.93;4.40;;;3.70;99.90;;;;;;4441820;32;20176;-72
2022/03/31 08:14:29;;;;;;;8.30;4.50;;;3.80;99.90;;;;;;4440847;32;20225;-71
2022/03/31 08:16:56;;;;;;;8.10;4.33;;;3.90;99.90;;;;;;4443609;32;20389;-70
2022/03/31 08:19:23;;;;;;;6.53;4.10;;;4.00;99.90;;;;;;4440770;32;20519;-69
2022/03/31 08:21:50;;;;;;;7.20;4.40;;;4.10;99.90;;;;;;4443127;32;20146;-71
2022/03/31 08:24:17;;;;;;;7.87;4.73;;;4.10;99.90;;;;;;4441258;32;20512;-71
2022/03/31 08:26:46;;;;;;;6.33;4.20;;;4.10;99.90;;;;;;4440515;32;20276;-69
2022/03/31 08:29:13;;;;;;;8.10;4.43;;;4.30;99.90;;;;;;4441073;32;20181;-71
2022/03/31 08:31:40;;;;;;;8.90;4.77;;;4.60;99.90;;;;;;4441239;32;20176;-71
2022/03/31 08:34:07;;;;;;;8.37;4.50;;;4.90;99.90;;;;;;4456259;32;20412;-69
2022/03/31 08:36:35;;;;;;;7.17;4.13;;;5.10;99.90;;;;;;4450610;32;20180;-69
2022/03/31 08:39:06;;;;;;;8.13;4.37;;;5.20;99.90;;;;;;4439946;32;20187;-69
2022/03/31 08:41:34;;;;;;;6.27;4.50;;;5.10;99.90;;;;;;4439912;32;20177;-71
2022/03/31 08:44:02;;;;;;;6.00;4.63;;;5.10;99.90;;;;;;4441935;32;20203;-69
2022/03/31 08:46:34;;;;;;;8.20;4.20;;;5.20;99.90;;;;;;4441943;32;20569;-70
2022/03/31 08:49:02;;;;;;;8.30;4.10;;;5.60;99.90;;;;;;4441650;32;20533;-70
2022/03/31 08:51:29;;;;;;;8.50;4.63;;;5.60;99.90;;;;;;4441371;32;20167;-71
2022/03/31 08:53:56;;;;;;;7.40;4.30;;;5.60;99.90;;;;;;4440638;32;20170;-70
2022/03/31 08:56:23;;;;;;;6.57;3.97;;;5.60;99.90;;;;;;4441130;32;20232;-70
2022/03/31 08:59:10;;;;;;;6.13;4.03;;;5.60;99.90;;;;;;4441796;32;20230;-70
2022/03/31 09:01:39;;;;;;;6.37;4.27;;;5.70;99.90;;;;;;4440052;32;20235;-70
2022/03/31 09:04:17;;;;;;;6.33;4.37;;;5.60;99.90;;;;;;4440370;32;20183;-70
2022/03/31 09:06:49;;;;;;;8.67;4.60;;;5.50;99.90;;;;;;4440744;32;20444;-70
2022/03/31 09:09:17;;;;;;;8.80;4.60;;;5.60;99.90;;;;;;4440078;32;20182;-70
2022/03/31 09:11:49;;;;;;;6.77;4.30;;;5.70;99.90;;;;;;4445281;32;20196;-70
2022/03/31 09:14:31;;;;;;;5.47;4.00;;;5.70;99.90;;;;;;4444990;32;20199;-70
2022/03/31 09:17:10;;;;;;;5.73;3.87;;;5.70;99.90;;;;;;4441452;32;20208;-70
2022/03/31 09:19:37;;;;;;;7.97;4.07;;;5.60;99.90;;;;;;4440912;32;20415;-70
2022/03/31 09:22:05;;;;;;;6.07;3.83;;;5.70;99.90;;;;;;4440327;32;20264;-70
2022/03/31 09:24:32;;;;;;;6.43;4.20;;;5.60;99.90;;;;;;4441321;32;20224;-70
2022/03/31 09:27:01;;;;;;;6.00;3.63;;;5.50;99.90;;;;;;4439424;32;20262;-70
2022/03/31 09:29:30;;;;;;;8.33;3.97;;;5.50;99.90;;;;;;4439957;32;20234;-70
2022/03/31 09:32:13;;;;;;;5.07;3.77;;;5.40;99.90;;;;;;4441283;32;20394;-70
2022/03/31 09:34:43;;;;;;;7.87;3.70;;;5.20;99.90;;;;;;4439912;32;20229;-70
2022/03/31 09:37:11;;;;;;;6.50;3.87;;;5.20;99.90;;;;;;4442762;32;20519;-70
2022/03/31 09:39:39;;;;;;;6.97;4.03;;;5.10;99.90;;;;;;4440584;32;20473;-70
2022/03/31 09:42:14;;;;;;;6.47;3.77;;;5.20;99.90;;;;;;4440192;32;20235;-70
2022/03/31 09:44:42;;;;;;;6.80;3.77;;;5.30;99.90;;;;;;4439650;32;20176;-70
2022/03/31 09:47:10;;;;;;;9.83;3.67;;;5.30;99.90;;;;;;4441324;32;20216;-70
2022/03/31 09:49:38;;;;;;;9.43;3.90;;;5.50;99.90;;;;;;4441186;32;20138;-70
2022/03/31 09:52:09;;;;;;;5.07;3.33;;;5.60;99.90;;;;;;4439229;32;20178;-70
2022/03/31 09:54:36;;;;;;;9.57;4.40;;;5.70;99.90;;;;;;4439257;32;20201;-71
2022/03/31 09:57:07;;;;;;;7.57;3.77;;;5.80;99.90;;;;;;4440766;32;20173;-70
2022/03/31 09:59:38;;;;;;;5.30;3.60;;;5.80;99.90;;;;;;4439694;32;20197;-70
2022/03/31 10:02:06;;;;;;;5.67;4.10;;;5.90;99.90;;;;;;4439894;32;20226;-69
2022/03/31 10:04:34;;;;;;;6.53;3.90;;;6.10;99.90;;;;;;4442143;32;20145;-70
2022/03/31 10:07:05;;;;;;;5.63;3.40;;;6.10;99.90;;;;;;4438950;32;20181;-70
2022/03/31 10:09:35;;;;;;;5.33;3.50;;;6.20;99.90;;;;;;4438859;32;20211;-70
2022/03/31 10:12:21;;;;;;;5.47;3.30;;;6.40;99.90;;;;;;4441504;32;20147;-70
2022/03/31 10:14:59;;;;;;;8.37;3.60;;;6.60;99.90;;;;;;4438651;32;20180;-70
2022/03/31 10:17:29;;;;;;;5.30;3.50;;;6.70;99.90;;;;;;4439427;32;20523;-70
2022/03/31 10:20:11;;;;;;;7.40;3.37;;;6.70;99.90;;;;;;4442734;32;20176;-70
2022/03/31 10:25:39;;;;;;;4.93;3.30;;;6.70;99.90;;;;;;4439719;32;20181;-71
2022/03/31 10:28:18;;;;;;;4.87;3.23;;;6.80;99.90;;;;;;4443232;32;20444;-70
2022/03/31 10:30:55;;;;;;;4.07;3.00;;;6.50;99.90;;;;;;4457039;32;20190;-70
2022/03/31 10:33:44;;;;;;;7.50;3.30;;;6.40;99.90;;;;;;4454882;32;20481;-70
2022/03/31 10:36:13;;;;;;;4.50;3.30;;;6.30;99.90;;;;;;4453935;32;20150;-71
2022/03/31 10:38:55;;;;;;;4.27;2.90;;;6.30;99.90;;;;;;4439441;32;20436;-70
2022/03/31 10:41:34;;;;;;;4.27;2.90;;;6.20;99.90;;;;;;4440134;32;20202;-71
2022/03/31 10:44:16;;;;;;;5.47;3.40;;;6.20;99.90;;;;;;4440552;32;20147;-71
2022/03/31 10:46:47;;;;;;;4.20;3.00;;;6.40;99.90;;;;;;4439751;32;20193;-71
2022/03/31 10:49:20;;;;;;;5.13;3.00;;;6.50;99.90;;;;;;4448196;32;20217;-70
2022/03/31 10:51:48;;;;;;;5.03;3.13;;;6.50;99.90;;;;;;4440584;32;20215;-70
2022/03/31 10:54:31;;;;;;;5.23;3.00;;;6.40;99.90;;;;;;4441139;32;20221;-69
2022/03/31 10:57:03;;;;;;;5.17;3.17;;;6.30;99.90;;;;;;4440318;32;20650;-69
2022/03/31 10:59:30;;;;;;;7.63;4.17;;;6.50;99.90;;;;;;4441417;32;20312;-70
2022/03/31 11:02:01;;;;;;;4.20;3.00;;;6.70;99.90;;;;;;4443241;32;20238;-70
2022/03/31 11:04:28;;;;;;;6.50;2.87;;;6.90;99.90;;;;;;4453921;32;20188;-69
2022/03/31 11:06:56;;;;;;;4.80;2.70;;;7.10;99.90;;;;;;4455158;32;20345;-69
2022/03/31 11:09:27;;;;;;;4.20;2.67;;;7.40;99.90;;;;;;4454062;32;20207;-71
2022/03/31 11:11:56;;;;;;;3.97;2.70;;;7.60;99.90;;;;;;4453783;32;20192;-70
2022/03/31 11:14:23;;;;;;;4.40;2.53;;;7.80;99.90;;;;;;4456414;32;20143;-69
2022/03/31 11:16:51;;;;;;;5.93;2.87;;;7.90;99.90;;;;;;4455674;32;20157;-70
2022/03/31 11:19:21;;;;;;;4.03;2.50;;;7.90;99.90;;;;;;4454968;32;20176;-69
2022/03/31 11:21:49;;;;;;;4.90;2.70;;;8.00;99.40;;;;;;4442046;32;20256;-70
2022/03/31 11:24:23;;;;;;;4.70;2.80;;;8.20;98.10;;;;;;4453738;32;20201;-69
2022/03/31 11:26:53;;;;;;;5.13;2.50;;;8.10;96.80;;;;;;4453072;32;20189;-70
2022/03/31 11:29:26;;;;;;;3.50;2.43;;;8.30;96.20;;;;;;4454012;32;20217;-70
2022/03/31 11:31:54;;;;;;;4.97;2.87;;;8.40;95.70;;;;;;4452620;32;20169;-70
2022/03/31 11:34:28;;;;;;;4.00;2.40;;;8.40;94.70;;;;;;4455813;32;20151;-70
2022/03/31 11:37:00;;;;;;;5.47;2.60;;;8.40;95.00;;;;;;4453906;32;20170;-70
2022/03/31 11:39:30;;;;;;;3.70;2.60;;;8.60;94.40;;;;;;4453540;32;20520;-70
2022/03/31 11:42:00;;;;;;;5.07;2.57;;;8.60;93.90;;;;;;4454147;32;20169;-70
2022/03/31 11:44:41;;;;;;;4.17;2.60;;;8.70;93.10;;;;;;4453099;32;20229;-70
2022/03/31 11:47:18;;;;;;;5.00;2.63;;;8.80;92.10;;;;;;4454584;32;20173;-69
2022/03/31 11:49:56;;;;;;;4.90;2.60;;;8.90;91.30;;;;;;4454961;32;20145;-70
2022/03/31 11:52:33;;;;;;;3.87;2.43;;;8.90;90.70;;;;;;4454086;32;20195;-70
2022/03/31 11:55:02;;;;;;;3.63;2.40;;;8.80;90.30;;;;;;4454728;32;20218;-70
2022/03/31 11:57:29;;;;;;;3.57;2.50;;;9.00;89.80;;;;;;4454502;32;20197;-69
2022/03/31 12:00:08;;;;;;;3.60;2.50;;;9.10;88.60;;;;;;4454219;32;20178;-70
2022/03/31 12:02:35;;;;;;;5.17;2.80;;;9.10;87.10;;;;;;4454132;32;20185;-70
2022/03/31 12:05:11;;;;;;;3.53;2.30;;;8.90;86.10;;;;;;4453828;32;20305;-70
2022/03/31 12:07:39;;;;;;;3.90;2.40;;;8.60;86.30;;;;;;4454125;32;20208;-70
2022/03/31 12:10:06;;;;;;;4.17;2.70;;;8.50;87.60;;;;;;4453473;32;20201;-70
2022/03/31 12:12:49;;;;;;;5.47;2.70;;;8.50;88.50;;;;;;4454544;32;20180;-70
2022/03/31 12:15:34;;;;;;;3.63;2.43;;;8.50;88.70;;;;;;4456049;32;20217;-69
2022/03/31 12:18:07;;;;;;;5.00;2.57;;;8.60;88.50;;;;;;4453560;32;20241;-69
2022/03/31 12:20:39;;;;;;;3.43;2.60;;;8.90;88.00;;;;;;4452883;32;20174;-68
2022/03/31 12:23:19;;;;;;;4.30;2.40;;;9.20;86.70;;;;;;4453065;32;20253;-68
2022/03/31 12:25:46;;;;;;;4.10;2.70;;;9.10;85.00;;;;;;4455100;32;20162;-69
2022/03/31 12:28:13;;;;;;;3.80;2.43;;;9.10;82.90;;;;;;4437399;32;20615;-70
2022/03/31 12:30:47;;;;;;;5.37;2.70;;;8.90;82.90;;;;;;4437394;32;20189;-68
2022/03/31 12:33:31;;;;;;;3.20;2.37;;;8.90;84.20;;;;;;4439036;32;20484;-68
2022/03/31 12:36:07;;;;;;;4.47;2.43;;;8.80;82.70;;;;;;4437702;32;20508;-68
2022/03/31 12:38:46;;;;;;;3.37;2.47;;;8.70;83.30;;;;;;4437334;32;20196;-68
2022/03/31 12:41:25;;;;;;;4.17;2.53;;;8.70;84.00;;;;;;4438701;32;20566;-67
2022/03/31 12:44:01;;;;;;;4.27;2.33;;;8.60;83.60;;;;;;4441254;32;20228;-70
2022/03/31 12:46:36;;;;;;;3.03;2.40;;;8.60;83.90;;;;;;4441765;32;20322;-71
2022/03/31 12:49:08;;;;;;;3.20;2.30;;;8.70;82.80;;;;;;4442626;32;20184;-71
2022/03/31 12:51:52;;;;;;;4.47;2.20;;;8.60;80.70;;;;;;4440436;32;20242;-73
2022/03/31 12:54:19;;;;;;;3.30;2.20;;;8.70;80.80;;;;;;4440203;32;20188;-72
2022/03/31 12:56:48;;;;;;;3.30;2.40;;;8.80;80.30;;;;;;4439810;32;20580;-70
2022/03/31 12:59:17;;;;;;;4.87;2.70;;;9.00;80.60;;;;;;4440891;32;20201;-69
2022/03/31 13:02:02;;;;;;;3.63;2.50;;;9.00;80.50;;;;;;4442036;32;20177;-69
2022/03/31 13:04:30;;;;;;;3.57;2.43;;;8.90;80.90;;;;;;4441508;32;20168;-70
2022/03/31 13:06:57;;;;;;;5.27;2.43;;;8.90;81.90;;;;;;4446192;32;20186;-71
2022/03/31 13:09:25;;;;;;;4.37;2.80;;;9.10;80.20;;;;;;4447178;32;20201;-68